Helena, MT

5:06 AM MST on January 21, 2017 (GMT -0700)
Capital High | | Change Station

Elev 3871 ft 46.62 °N, 112.05 °W | Updated 28 seconds ago

Partly Cloudy
Partly Cloudy
5.9 °F
Feels Like 6 °F
N
1.0
Wind Variable Wind from East

Today
High -- | Low -- °F
--% Chance of Precip.
Yesterday
High -- | Low -- °F
Precip. -- in
Pressure 29.35 in
Visibility 4.0 miles
Clouds Mostly Cloudy 100 ft
Windchill 6 °F
Dew Point 2 °F
Humidity 86%
Rainfall 0.00 in
Snow Depth Not available.
8:03 AM 5:16 PM
Waning Crescent, 35% visible
SPECI KHLN 211203Z 00000KT 4SM BR BKN001 M15/M17 A2935 RMK AO2 T11501167
Pressure 29.35 in
Visibility 4.0 miles
Clouds Mostly Cloudy 100 ft
Windchill 6 °F
Dew Point 2 °F
Humidity 86%
Rainfall 0.00 in
Snow Depth Not available.
8:03 AM 5:16 PM
Waning Crescent, 35% visible
SPECI KHLN 211203Z 00000KT 4SM BR BKN001 M15/M17 A2935 RMK AO2 T11501167

Get Your Daily Forecast Email!

Thanks for signing up!

Be on the lookout for a verification email in your inbox.

You'll start receiving the daily forecast at 8 AM.

×

10-Day Weather Forecast

Almanac

Astronomy

Jan. 21, 2017 Rise Set
Actual Time
Civil Twilight
Nautical Twilight
Astronomical Twilight
Moon
Length of Visible Light
Length of Day
Tomorrow will be .
, % of the Moon is Illuminated

Today's Extremes

State Highs State Lows

Community

WunderPhotos

Upload Photos

1,962,540 photos uploaded!

WunderBlog® & News

Nearby

Air Quality

  Air Quality AQ Index Pollutant
Not available.

Snow Depth

Station Depth Elevation

Earthquake Activity

City Distance Mag. Time & Date
Minimum magnitude displayed is 2.5.

Coastal Water Temperatures

Place Temperature

Stations

Nearby Weather Stations

Station Location Temp. Windchill Dew Point Humidity Wind Precip. Elev Updated Type
                   

Watches & Warnings

There are currently no watches in effect.